sensor_id;sensor_type;location;lat;lon;timestamp;P1;durP1;ratioP1;P2;durP2;ratioP2
54121;SDS011;40029;58.708;50.190;2024-01-16T00:01:48;13.07;;;5.60;;
54121;SDS011;40029;58.708;50.190;2024-01-16T00:04:19;10.70;;;4.65;;
54121;SDS011;40029;58.708;50.190;2024-01-16T00:09:40;6.97;;;3.50;;
54121;SDS011;40029;58.708;50.190;2024-01-16T00:12:30;4.77;;;2.70;;
54121;SDS011;40029;58.708;50.190;2024-01-16T00:15:01;6.47;;;2.20;;
54121;SDS011;40029;58.708;50.190;2024-01-16T00:17:36;8.13;;;2.40;;
54121;SDS011;40029;58.708;50.190;2024-01-16T00:20:07;3.00;;;1.83;;
54121;SDS011;40029;58.708;50.190;2024-01-16T00:22:39;10.57;;;5.77;;
54121;SDS011;40029;58.708;50.190;2024-01-16T00:25:10;10.57;;;5.63;;
54121;SDS011;40029;58.708;50.190;2024-01-16T00:28:01;17.73;;;7.40;;
54121;SDS011;40029;58.708;50.190;2024-01-16T00:30:32;8.63;;;6.00;;
54121;SDS011;40029;58.708;50.190;2024-01-16T00:33:04;14.57;;;7.83;;
54121;SDS011;40029;58.708;50.190;2024-01-16T00:36:12;16.17;;;5.93;;
54121;SDS011;40029;58.708;50.190;2024-01-16T00:39:02;8.40;;;5.70;;
54121;SDS011;40029;58.708;50.190;2024-01-16T00:42:10;16.43;;;6.07;;
54121;SDS011;40029;58.708;50.190;2024-01-16T00:45:00;9.20;;;3.53;;
54121;SDS011;40029;58.708;50.190;2024-01-16T00:47:32;14.70;;;5.70;;
54121;SDS011;40029;58.708;50.190;2024-01-16T00:50:03;14.37;;;4.53;;
54121;SDS011;40029;58.708;50.190;2024-01-16T00:52:35;11.00;;;4.22;;
54121;SDS011;40029;58.708;50.190;2024-01-16T00:55:25;7.37;;;3.00;;
54121;SDS011;40029;58.708;50.190;2024-01-16T00:58:14;5.77;;;3.43;;
54121;SDS011;40029;58.708;50.190;2024-01-16T01:00:46;13.00;;;5.50;;
54121;SDS011;40029;58.708;50.190;2024-01-16T01:03:17;7.40;;;3.80;;
54121;SDS011;40029;58.708;50.190;2024-01-16T01:05:48;14.87;;;5.63;;
54121;SDS011;40029;58.708;50.190;2024-01-16T01:08:19;13.27;;;3.30;;
54121;SDS011;40029;58.708;50.190;2024-01-16T01:10:50;16.63;;;8.00;;
54121;SDS011;40029;58.708;50.190;2024-01-16T01:13:22;23.17;;;11.05;;
54121;SDS011;40029;58.708;50.190;2024-01-16T01:15:53;21.20;;;8.68;;
54121;SDS011;40029;58.708;50.190;2024-01-16T01:18:24;20.95;;;9.18;;
54121;SDS011;40029;58.708;50.190;2024-01-16T01:20:56;9.73;;;3.83;;
54121;SDS011;40029;58.708;50.190;2024-01-16T01:23:27;4.33;;;2.67;;
54121;SDS011;40029;58.708;50.190;2024-01-16T01:25:58;7.80;;;3.70;;
54121;SDS011;40029;58.708;50.190;2024-01-16T01:28:51;8.27;;;4.13;;
54121;SDS011;40029;58.708;50.190;2024-01-16T01:31:23;10.57;;;2.55;;
54121;SDS011;40029;58.708;50.190;2024-01-16T01:33:54;9.37;;;2.87;;
54121;SDS011;40029;58.708;50.190;2024-01-16T01:36:25;7.97;;;3.92;;
54121;SDS011;40029;58.708;50.190;2024-01-16T01:39:16;12.20;;;5.97;;
54121;SDS011;40029;58.708;50.190;2024-01-16T01:42:05;19.38;;;6.43;;
54121;SDS011;40029;58.708;50.190;2024-01-16T01:44:36;11.45;;;4.45;;
54121;SDS011;40029;58.708;50.190;2024-01-16T01:47:07;11.40;;;4.93;;
54121;SDS011;40029;58.708;50.190;2024-01-16T01:49:58;6.85;;;3.10;;
54121;SDS011;40029;58.708;50.190;2024-01-16T01:52:30;5.43;;;3.03;;
54121;SDS011;40029;58.708;50.190;2024-01-16T01:55:02;11.13;;;4.00;;
54121;SDS011;40029;58.708;50.190;2024-01-16T01:57:53;4.03;;;2.80;;
54121;SDS011;40029;58.708;50.190;2024-01-16T02:00:24;6.35;;;2.70;;
54121;SDS011;40029;58.708;50.190;2024-01-16T02:02:55;14.55;;;6.72;;
54121;SDS011;40029;58.708;50.190;2024-01-16T02:05:45;12.40;;;6.13;;
54121;SDS011;40029;58.708;50.190;2024-01-16T02:08:17;14.20;;;4.68;;
54121;SDS011;40029;58.708;50.190;2024-01-16T02:10:49;8.23;;;3.83;;
54121;SDS011;40029;58.708;50.190;2024-01-16T02:13:39;9.75;;;5.53;;
54121;SDS011;40029;58.708;50.190;2024-01-16T02:19:11;11.20;;;5.88;;
54121;SDS011;40029;58.708;50.190;2024-01-16T02:22:19;8.68;;;3.72;;
54121;SDS011;40029;58.708;50.190;2024-01-16T02:24:53;6.90;;;3.42;;
54121;SDS011;40029;58.708;50.190;2024-01-16T02:27:25;5.68;;;3.30;;
54121;SDS011;40029;58.708;50.190;2024-01-16T02:29:56;23.15;;;7.43;;
54121;SDS011;40029;58.708;50.190;2024-01-16T02:35:17;9.00;;;4.40;;
54121;SDS011;40029;58.708;50.190;2024-01-16T02:37:49;17.15;;;6.50;;
54121;SDS011;40029;58.708;50.190;2024-01-16T02:40:20;22.95;;;10.13;;
54121;SDS011;40029;58.708;50.190;2024-01-16T02:42:51;19.58;;;9.73;;
54121;SDS011;40029;58.708;50.190;2024-01-16T02:45:22;14.60;;;8.33;;
54121;SDS011;40029;58.708;50.190;2024-01-16T02:47:54;8.63;;;5.28;;
54121;SDS011;40029;58.708;50.190;2024-01-16T02:50:26;17.60;;;9.73;;
54121;SDS011;40029;58.708;50.190;2024-01-16T02:55:47;22.13;;;7.65;;
54121;SDS011;40029;58.708;50.190;2024-01-16T02:58:18;12.27;;;6.35;;
54121;SDS011;40029;58.708;50.190;2024-01-16T03:00:49;16.52;;;6.53;;
54121;SDS011;40029;58.708;50.190;2024-01-16T03:03:20;14.13;;;6.78;;
54121;SDS011;40029;58.708;50.190;2024-01-16T03:05:52;15.30;;;6.33;;
54121;SDS011;40029;58.708;50.190;2024-01-16T03:11:32;16.52;;;8.30;;
54121;SDS011;40029;58.708;50.190;2024-01-16T03:14:21;18.63;;;9.07;;
54121;SDS011;40029;58.708;50.190;2024-01-16T03:16:53;12.37;;;6.87;;
54121;SDS011;40029;58.708;50.190;2024-01-16T03:19:24;22.27;;;10.38;;
54121;SDS011;40029;58.708;50.190;2024-01-16T03:21:55;13.88;;;6.63;;
54121;SDS011;40029;58.708;50.190;2024-01-16T03:24:26;10.15;;;6.38;;
54121;SDS011;40029;58.708;50.190;2024-01-16T03:26:57;9.43;;;4.25;;
54121;SDS011;40029;58.708;50.190;2024-01-16T03:29:28;15.05;;;4.13;;
54121;SDS011;40029;58.708;50.190;2024-01-16T03:32:18;12.45;;;5.03;;
54121;SDS011;40029;58.708;50.190;2024-01-16T03:35:08;17.77;;;6.88;;
54121;SDS011;40029;58.708;50.190;2024-01-16T03:37:39;7.53;;;2.85;;
54121;SDS011;40029;58.708;50.190;2024-01-16T03:40:10;11.88;;;4.63;;
54121;SDS011;40029;58.708;50.190;2024-01-16T03:42:42;4.97;;;2.10;;
54121;SDS011;40029;58.708;50.190;2024-01-16T03:45:14;4.43;;;2.33;;
54121;SDS011;40029;58.708;50.190;2024-01-16T03:47:46;8.33;;;3.93;;
54121;SDS011;40029;58.708;50.190;2024-01-16T03:50:35;14.63;;;4.22;;
54121;SDS011;40029;58.708;50.190;2024-01-16T03:53:25;15.30;;;7.53;;
54121;SDS011;40029;58.708;50.190;2024-01-16T03:55:56;28.90;;;9.65;;
54121;SDS011;40029;58.708;50.190;2024-01-16T03:58:28;8.55;;;5.20;;
54121;SDS011;40029;58.708;50.190;2024-01-16T04:00:59;9.32;;;5.03;;
54121;SDS011;40029;58.708;50.190;2024-01-16T04:03:49;12.93;;;5.72;;
54121;SDS011;40029;58.708;50.190;2024-01-16T04:06:38;12.75;;;5.80;;
54121;SDS011;40029;58.708;50.190;2024-01-16T04:09:10;14.57;;;6.35;;
54121;SDS011;40029;58.708;50.190;2024-01-16T04:11:41;22.10;;;8.60;;
54121;SDS011;40029;58.708;50.190;2024-01-16T04:14:12;12.27;;;5.75;;
54121;SDS011;40029;58.708;50.190;2024-01-16T04:19:33;8.70;;;3.50;;
54121;SDS011;40029;58.708;50.190;2024-01-16T04:22:04;17.33;;;6.13;;
54121;SDS011;40029;58.708;50.190;2024-01-16T04:24:35;15.30;;;7.60;;
54121;SDS011;40029;58.708;50.190;2024-01-16T04:27:07;10.60;;;3.70;;
54121;SDS011;40029;58.708;50.190;2024-01-16T04:29:38;5.85;;;3.10;;
54121;SDS011;40029;58.708;50.190;2024-01-16T04:32:09;10.27;;;3.58;;
54121;SDS011;40029;58.708;50.190;2024-01-16T04:34:58;8.82;;;5.25;;
54121;SDS011;40029;58.708;50.190;2024-01-16T04:37:30;11.52;;;4.80;;
54121;SDS011;40029;58.708;50.190;2024-01-16T04:40:01;6.53;;;4.20;;
54121;SDS011;40029;58.708;50.190;2024-01-16T04:42:50;11.07;;;3.33;;
54121;SDS011;40029;58.708;50.190;2024-01-16T04:45:23;12.65;;;4.00;;
54121;SDS011;40029;58.708;50.190;2024-01-16T04:47:54;11.20;;;4.65;;
54121;SDS011;40029;58.708;50.190;2024-01-16T04:50:43;11.73;;;4.85;;
54121;SDS011;40029;58.708;50.190;2024-01-16T04:53:16;13.60;;;4.78;;
54121;SDS011;40029;58.708;50.190;2024-01-16T04:55:47;11.35;;;4.45;;
54121;SDS011;40029;58.708;50.190;2024-01-16T04:58:19;15.93;;;7.28;;
54121;SDS011;40029;58.708;50.190;2024-01-16T05:00:50;10.35;;;4.18;;
54121;SDS011;40029;58.708;50.190;2024-01-16T05:03:21;11.82;;;5.18;;
54121;SDS011;40029;58.708;50.190;2024-01-16T05:06:14;7.40;;;5.22;;
54121;SDS011;40029;58.708;50.190;2024-01-16T05:08:46;10.20;;;4.40;;
54121;SDS011;40029;58.708;50.190;2024-01-16T05:11:18;32.40;;;6.32;;
54121;SDS011;40029;58.708;50.190;2024-01-16T05:13:49;14.35;;;6.03;;
54121;SDS011;40029;58.708;50.190;2024-01-16T05:16:39;7.18;;;3.95;;
54121;SDS011;40029;58.708;50.190;2024-01-16T05:19:28;17.27;;;6.25;;
54121;SDS011;40029;58.708;50.190;2024-01-16T05:22:00;9.05;;;3.85;;
54121;SDS011;40029;58.708;50.190;2024-01-16T05:24:31;8.00;;;3.97;;
54121;SDS011;40029;58.708;50.190;2024-01-16T05:27:02;10.68;;;4.90;;
54121;SDS011;40029;58.708;50.190;2024-01-16T05:29:35;12.23;;;3.90;;
54121;SDS011;40029;58.708;50.190;2024-01-16T05:32:10;9.50;;;3.72;;
54121;SDS011;40029;58.708;50.190;2024-01-16T05:34:41;6.13;;;3.50;;
54121;SDS011;40029;58.708;50.190;2024-01-16T05:37:12;9.02;;;4.63;;
54121;SDS011;40029;58.708;50.190;2024-01-16T05:39:44;14.88;;;6.68;;
54121;SDS011;40029;58.708;50.190;2024-01-16T05:42:15;12.95;;;5.55;;
54121;SDS011;40029;58.708;50.190;2024-01-16T05:45:05;11.75;;;5.38;;
54121;SDS011;40029;58.708;50.190;2024-01-16T05:50:27;10.40;;;5.10;;
54121;SDS011;40029;58.708;50.190;2024-01-16T05:52:58;10.50;;;4.93;;
54121;SDS011;40029;58.708;50.190;2024-01-16T05:55:29;13.95;;;4.28;;
54121;SDS011;40029;58.708;50.190;2024-01-16T05:58:06;13.90;;;5.47;;
54121;SDS011;40029;58.708;50.190;2024-01-16T06:00:37;10.85;;;5.93;;
54121;SDS011;40029;58.708;50.190;2024-01-16T06:03:10;11.00;;;5.05;;
54121;SDS011;40029;58.708;50.190;2024-01-16T06:05:41;12.07;;;6.38;;
54121;SDS011;40029;58.708;50.190;2024-01-16T06:08:12;9.55;;;5.68;;
54121;SDS011;40029;58.708;50.190;2024-01-16T06:10:43;9.63;;;4.95;;
54121;SDS011;40029;58.708;50.190;2024-01-16T06:16:06;8.63;;;4.63;;
54121;SDS011;40029;58.708;50.190;2024-01-16T06:18:39;10.48;;;4.00;;
54121;SDS011;40029;58.708;50.190;2024-01-16T06:21:28;7.60;;;4.75;;
54121;SDS011;40029;58.708;50.190;2024-01-16T06:24:18;11.60;;;4.18;;
54121;SDS011;40029;58.708;50.190;2024-01-16T06:26:49;15.07;;;5.72;;
54121;SDS011;40029;58.708;50.190;2024-01-16T06:29:39;20.67;;;6.80;;
54121;SDS011;40029;58.708;50.190;2024-01-16T06:32:10;12.50;;;5.38;;
54121;SDS011;40029;58.708;50.190;2024-01-16T06:34:41;9.82;;;6.47;;
54121;SDS011;40029;58.708;50.190;2024-01-16T06:37:12;11.90;;;5.97;;
54121;SDS011;40029;58.708;50.190;2024-01-16T06:39:43;16.95;;;6.57;;
54121;SDS011;40029;58.708;50.190;2024-01-16T06:42:15;15.52;;;6.65;;
54121;SDS011;40029;58.708;50.190;2024-01-16T06:45:05;16.23;;;7.93;;
54121;SDS011;40029;58.708;50.190;2024-01-16T06:47:36;16.98;;;6.70;;
54121;SDS011;40029;58.708;50.190;2024-01-16T06:50:26;19.65;;;7.28;;
54121;SDS011;40029;58.708;50.190;2024-01-16T06:52:57;15.07;;;6.85;;
54121;SDS011;40029;58.708;50.190;2024-01-16T06:55:47;13.85;;;7.25;;
54121;SDS011;40029;58.708;50.190;2024-01-16T06:58:19;14.82;;;8.27;;
54121;SDS011;40029;58.708;50.190;2024-01-16T07:00:50;12.45;;;6.60;;
54121;SDS011;40029;58.708;50.190;2024-01-16T07:03:22;11.93;;;7.80;;
54121;SDS011;40029;58.708;50.190;2024-01-16T07:05:53;16.00;;;6.80;;
54121;SDS011;40029;58.708;50.190;2024-01-16T07:08:24;16.05;;;6.65;;
54121;SDS011;40029;58.708;50.190;2024-01-16T07:10:55;13.45;;;6.88;;
54121;SDS011;40029;58.708;50.190;2024-01-16T07:13:27;19.00;;;7.47;;
54121;SDS011;40029;58.708;50.190;2024-01-16T07:16:16;14.98;;;8.68;;
54121;SDS011;40029;58.708;50.190;2024-01-16T07:18:48;18.75;;;9.80;;
54121;SDS011;40029;58.708;50.190;2024-01-16T07:24:09;19.45;;;7.93;;
54121;SDS011;40029;58.708;50.190;2024-01-16T07:26:58;9.55;;;6.28;;
54121;SDS011;40029;58.708;50.190;2024-01-16T07:29:48;11.98;;;6.95;;
54121;SDS011;40029;58.708;50.190;2024-01-16T07:32:19;15.13;;;6.75;;
54121;SDS011;40029;58.708;50.190;2024-01-16T07:35:09;11.82;;;5.40;;
54121;SDS011;40029;58.708;50.190;2024-01-16T07:37:40;12.10;;;5.47;;
54121;SDS011;40029;58.708;50.190;2024-01-16T07:40:30;12.70;;;6.57;;
54121;SDS011;40029;58.708;50.190;2024-01-16T07:43:01;14.23;;;8.13;;
54121;SDS011;40029;58.708;50.190;2024-01-16T07:45:32;20.48;;;8.55;;
54121;SDS011;40029;58.708;50.190;2024-01-16T07:48:04;10.65;;;6.00;;
54121;SDS011;40029;58.708;50.190;2024-01-16T07:50:35;17.60;;;6.47;;
54121;SDS011;40029;58.708;50.190;2024-01-16T07:53:06;21.17;;;8.93;;
54121;SDS011;40029;58.708;50.190;2024-01-16T07:55:56;17.73;;;9.57;;
54121;SDS011;40029;58.708;50.190;2024-01-16T07:58:28;27.63;;;9.55;;
54121;SDS011;40029;58.708;50.190;2024-01-16T08:00:59;37.72;;;9.82;;
54121;SDS011;40029;58.708;50.190;2024-01-16T08:03:30;90.05;;;26.30;;
54121;SDS011;40029;58.708;50.190;2024-01-16T08:06:01;56.88;;;19.85;;
54121;SDS011;40029;58.708;50.190;2024-01-16T08:08:33;21.42;;;10.02;;
54121;SDS011;40029;58.708;50.190;2024-01-16T08:11:04;18.33;;;8.30;;
54121;SDS011;40029;58.708;50.190;2024-01-16T08:13:36;23.70;;;11.45;;
54121;SDS011;40029;58.708;50.190;2024-01-16T08:16:07;22.83;;;10.25;;
54121;SDS011;40029;58.708;50.190;2024-01-16T08:18:39;15.27;;;8.50;;
54121;SDS011;40029;58.708;50.190;2024-01-16T08:21:10;22.35;;;9.38;;
54121;SDS011;40029;58.708;50.190;2024-01-16T08:23:42;16.60;;;7.97;;
54121;SDS011;40029;58.708;50.190;2024-01-16T08:26:31;18.55;;;10.10;;
54121;SDS011;40029;58.708;50.190;2024-01-16T08:29:03;21.77;;;12.13;;
54121;SDS011;40029;58.708;50.190;2024-01-16T08:32:11;10.95;;;6.15;;
54121;SDS011;40029;58.708;50.190;2024-01-16T08:34:42;18.25;;;8.77;;
54121;SDS011;40029;58.708;50.190;2024-01-16T08:37:14;27.63;;;10.07;;
54121;SDS011;40029;58.708;50.190;2024-01-16T08:39:45;18.80;;;8.25;;
54121;SDS011;40029;58.708;50.190;2024-01-16T08:42:16;14.65;;;7.55;;
54121;SDS011;40029;58.708;50.190;2024-01-16T08:44:49;20.63;;;8.40;;
54121;SDS011;40029;58.708;50.190;2024-01-16T08:47:38;16.00;;;8.88;;
54121;SDS011;40029;58.708;50.190;2024-01-16T08:50:28;18.58;;;10.30;;
54121;SDS011;40029;58.708;50.190;2024-01-16T08:53:00;23.35;;;12.40;;
54121;SDS011;40029;58.708;50.190;2024-01-16T08:55:31;22.80;;;9.30;;
54121;SDS011;40029;58.708;50.190;2024-01-16T08:58:03;21.85;;;8.23;;
54121;SDS011;40029;58.708;50.190;2024-01-16T09:00:34;26.10;;;11.73;;
54121;SDS011;40029;58.708;50.190;2024-01-16T09:03:06;19.58;;;10.70;;
54121;SDS011;40029;58.708;50.190;2024-01-16T09:05:38;21.55;;;11.70;;
54121;SDS011;40029;58.708;50.190;2024-01-16T09:08:28;23.92;;;9.43;;
54121;SDS011;40029;58.708;50.190;2024-01-16T09:11:18;9.52;;;5.53;;
54121;SDS011;40029;58.708;50.190;2024-01-16T09:14:07;18.67;;;8.60;;
54121;SDS011;40029;58.708;50.190;2024-01-16T09:16:39;11.60;;;5.88;;
54121;SDS011;40029;58.708;50.190;2024-01-16T09:19:11;34.78;;;12.90;;
54121;SDS011;40029;58.708;50.190;2024-01-16T09:22:00;32.75;;;14.50;;
54121;SDS011;40029;58.708;50.190;2024-01-16T09:24:31;30.85;;;13.43;;
54121;SDS011;40029;58.708;50.190;2024-01-16T09:27:03;36.15;;;15.25;;
54121;SDS011;40029;58.708;50.190;2024-01-16T09:32:08;36.13;;;16.63;;
54121;SDS011;40029;58.708;50.190;2024-01-16T09:34:39;22.08;;;13.40;;
54121;SDS011;40029;58.708;50.190;2024-01-16T09:37:11;25.27;;;10.50;;
54121;SDS011;40029;58.708;50.190;2024-01-16T09:40:00;16.88;;;9.05;;
54121;SDS011;40029;58.708;50.190;2024-01-16T09:42:33;28.27;;;13.32;;
54121;SDS011;40029;58.708;50.190;2024-01-16T09:45:06;30.33;;;13.43;;
54121;SDS011;40029;58.708;50.190;2024-01-16T09:47:39;12.40;;;6.03;;
54121;SDS011;40029;58.708;50.190;2024-01-16T09:50:29;25.90;;;11.38;;
54121;SDS011;40029;58.708;50.190;2024-01-16T09:53:37;31.85;;;13.73;;
54121;SDS011;40029;58.708;50.190;2024-01-16T09:56:27;42.00;;;14.43;;
54121;SDS011;40029;58.708;50.190;2024-01-16T09:59:19;13.48;;;6.97;;
54121;SDS011;40029;58.708;50.190;2024-01-16T10:01:52;18.33;;;6.82;;
54121;SDS011;40029;58.708;50.190;2024-01-16T10:04:44;15.18;;;9.18;;
54121;SDS011;40029;58.708;50.190;2024-01-16T10:07:35;16.75;;;8.38;;
54121;SDS011;40029;58.708;50.190;2024-01-16T10:10:08;36.28;;;13.48;;
54121;SDS011;40029;58.708;50.190;2024-01-16T10:15:52;44.17;;;11.27;;
54121;SDS011;40029;58.708;50.190;2024-01-16T10:18:26;19.20;;;7.93;;
54121;SDS011;40029;58.708;50.190;2024-01-16T10:20:58;20.67;;;10.68;;
54121;SDS011;40029;58.708;50.190;2024-01-16T10:23:30;29.45;;;10.95;;
54121;SDS011;40029;58.708;50.190;2024-01-16T10:28:38;23.60;;;10.55;;
54121;SDS011;40029;58.708;50.190;2024-01-16T10:31:12;27.60;;;12.68;;
54121;SDS011;40029;58.708;50.190;2024-01-16T10:33:47;19.38;;;9.98;;
54121;SDS011;40029;58.708;50.190;2024-01-16T10:36:18;28.15;;;11.90;;
54121;SDS011;40029;58.708;50.190;2024-01-16T10:39:08;15.60;;;8.82;;
54121;SDS011;40029;58.708;50.190;2024-01-16T10:41:57;22.02;;;10.15;;
54121;SDS011;40029;58.708;50.190;2024-01-16T10:44:29;21.75;;;10.13;;
54121;SDS011;40029;58.708;50.190;2024-01-16T10:47:09;28.63;;;10.63;;
54121;SDS011;40029;58.708;50.190;2024-01-16T10:49:42;15.25;;;7.07;;
54121;SDS011;40029;58.708;50.190;2024-01-16T10:52:14;16.27;;;7.13;;
54121;SDS011;40029;58.708;50.190;2024-01-16T10:54:46;17.75;;;8.60;;
54121;SDS011;40029;58.708;50.190;2024-01-16T10:57:20;14.43;;;6.22;;
54121;SDS011;40029;58.708;50.190;2024-01-16T11:00:04;21.65;;;11.65;;
54121;SDS011;40029;58.708;50.190;2024-01-16T11:02:39;29.70;;;12.13;;
54121;SDS011;40029;58.708;50.190;2024-01-16T11:05:16;17.33;;;6.43;;
54121;SDS011;40029;58.708;50.190;2024-01-16T11:07:48;34.83;;;13.35;;
54121;SDS011;40029;58.708;50.190;2024-01-16T11:10:21;30.33;;;12.70;;
54121;SDS011;40029;58.708;50.190;2024-01-16T11:13:11;18.20;;;9.95;;
54121;SDS011;40029;58.708;50.190;2024-01-16T11:16:02;13.55;;;7.93;;
54121;SDS011;40029;58.708;50.190;2024-01-16T11:18:53;23.00;;;8.82;;
54121;SDS011;40029;58.708;50.190;2024-01-16T11:21:24;29.13;;;14.40;;
54121;SDS011;40029;58.708;50.190;2024-01-16T11:23:57;28.10;;;13.25;;
54121;SDS011;40029;58.708;50.190;2024-01-16T11:26:32;31.30;;;12.38;;
54121;SDS011;40029;58.708;50.190;2024-01-16T11:29:33;26.55;;;12.00;;
54121;SDS011;40029;58.708;50.190;2024-01-16T11:32:32;23.08;;;9.70;;
54121;SDS011;40029;58.708;50.190;2024-01-16T11:38:06;16.80;;;8.18;;
54121;SDS011;40029;58.708;50.190;2024-01-16T11:40:57;16.38;;;8.68;;
54121;SDS011;40029;58.708;50.190;2024-01-16T11:46:06;13.98;;;4.90;;
54121;SDS011;40029;58.708;50.190;2024-01-16T11:48:39;11.75;;;5.75;;
54121;SDS011;40029;58.708;50.190;2024-01-16T11:51:23;17.08;;;10.18;;
54121;SDS011;40029;58.708;50.190;2024-01-16T11:53:56;19.00;;;10.55;;
54121;SDS011;40029;58.708;50.190;2024-01-16T12:02:49;25.52;;;10.00;;
54121;SDS011;40029;58.708;50.190;2024-01-16T12:05:24;29.38;;;13.85;;
54121;SDS011;40029;58.708;50.190;2024-01-16T12:07:56;22.58;;;12.52;;
54121;SDS011;40029;58.708;50.190;2024-01-16T12:10:28;27.83;;;13.20;;
54121;SDS011;40029;58.708;50.190;2024-01-16T12:13:36;29.10;;;12.73;;
54121;SDS011;40029;58.708;50.190;2024-01-16T12:16:07;28.60;;;12.60;;
54121;SDS011;40029;58.708;50.190;2024-01-16T12:18:39;27.35;;;10.95;;
54121;SDS011;40029;58.708;50.190;2024-01-16T12:21:28;30.30;;;12.45;;
54121;SDS011;40029;58.708;50.190;2024-01-16T12:23:59;21.15;;;9.65;;
54121;SDS011;40029;58.708;50.190;2024-01-16T12:26:32;28.33;;;12.35;;
54121;SDS011;40029;58.708;50.190;2024-01-16T12:29:03;31.15;;;15.23;;
54121;SDS011;40029;58.708;50.190;2024-01-16T12:31:34;30.80;;;14.05;;
54121;SDS011;40029;58.708;50.190;2024-01-16T12:34:08;24.80;;;11.27;;
54121;SDS011;40029;58.708;50.190;2024-01-16T12:37:05;23.50;;;10.13;;
54121;SDS011;40029;58.708;50.190;2024-01-16T12:39:37;23.80;;;10.95;;
54121;SDS011;40029;58.708;50.190;2024-01-16T12:42:27;32.78;;;13.10;;
54121;SDS011;40029;58.708;50.190;2024-01-16T12:44:58;29.67;;;13.55;;
54121;SDS011;40029;58.708;50.190;2024-01-16T12:47:30;22.15;;;10.07;;
54121;SDS011;40029;58.708;50.190;2024-01-16T12:50:01;23.05;;;9.07;;
54121;SDS011;40029;58.708;50.190;2024-01-16T12:52:33;22.52;;;9.05;;
54121;SDS011;40029;58.708;50.190;2024-01-16T12:55:05;32.50;;;16.23;;
54121;SDS011;40029;58.708;50.190;2024-01-16T12:57:37;37.10;;;16.20;;
54121;SDS011;40029;58.708;50.190;2024-01-16T13:00:23;21.10;;;10.10;;
54121;SDS011;40029;58.708;50.190;2024-01-16T13:03:24;26.35;;;11.30;;
54121;SDS011;40029;58.708;50.190;2024-01-16T13:06:00;22.85;;;11.30;;
54121;SDS011;40029;58.708;50.190;2024-01-16T13:08:50;29.42;;;9.95;;
54121;SDS011;40029;58.708;50.190;2024-01-16T13:11:22;22.48;;;10.30;;
54121;SDS011;40029;58.708;50.190;2024-01-16T13:14:00;24.77;;;9.07;;
54121;SDS011;40029;58.708;50.190;2024-01-16T13:16:53;18.73;;;6.93;;
54121;SDS011;40029;58.708;50.190;2024-01-16T13:19:27;21.63;;;9.05;;
54121;SDS011;40029;58.708;50.190;2024-01-16T13:22:00;19.48;;;10.30;;
54121;SDS011;40029;58.708;50.190;2024-01-16T13:24:31;18.10;;;9.02;;
54121;SDS011;40029;58.708;50.190;2024-01-16T13:27:02;18.60;;;8.48;;
54121;SDS011;40029;58.708;50.190;2024-01-16T13:29:35;27.33;;;10.80;;
54121;SDS011;40029;58.708;50.190;2024-01-16T13:32:10;25.15;;;11.70;;
54121;SDS011;40029;58.708;50.190;2024-01-16T13:34:41;31.65;;;13.95;;
54121;SDS011;40029;58.708;50.190;2024-01-16T13:37:19;26.95;;;10.82;;
54121;SDS011;40029;58.708;50.190;2024-01-16T13:40:11;21.05;;;9.60;;
54121;SDS011;40029;58.708;50.190;2024-01-16T13:42:45;31.45;;;12.63;;
54121;SDS011;40029;58.708;50.190;2024-01-16T13:45:17;24.88;;;11.10;;
54121;SDS011;40029;58.708;50.190;2024-01-16T13:48:07;30.63;;;13.80;;
54121;SDS011;40029;58.708;50.190;2024-01-16T13:50:39;31.73;;;13.68;;
54121;SDS011;40029;58.708;50.190;2024-01-16T13:53:10;28.08;;;13.10;;
54121;SDS011;40029;58.708;50.190;2024-01-16T13:55:43;35.70;;;15.75;;
54121;SDS011;40029;58.708;50.190;2024-01-16T13:58:33;31.90;;;16.08;;
54121;SDS011;40029;58.708;50.190;2024-01-16T14:01:05;19.98;;;8.77;;
54121;SDS011;40029;58.708;50.190;2024-01-16T14:03:37;21.15;;;7.50;;
54121;SDS011;40029;58.708;50.190;2024-01-16T14:06:09;34.38;;;10.43;;
54121;SDS011;40029;58.708;50.190;2024-01-16T14:08:40;28.98;;;11.73;;
54121;SDS011;40029;58.708;50.190;2024-01-16T14:11:11;29.15;;;10.95;;
54121;SDS011;40029;58.708;50.190;2024-01-16T14:13:42;24.35;;;9.13;;
54121;SDS011;40029;58.708;50.190;2024-01-16T14:16:14;28.55;;;10.27;;
54121;SDS011;40029;58.708;50.190;2024-01-16T14:18:45;26.55;;;10.23;;
54121;SDS011;40029;58.708;50.190;2024-01-16T14:21:16;25.48;;;9.65;;
54121;SDS011;40029;58.708;50.190;2024-01-16T14:23:48;31.80;;;11.10;;
54121;SDS011;40029;58.708;50.190;2024-01-16T14:26:19;23.52;;;10.10;;
54121;SDS011;40029;58.708;50.190;2024-01-16T14:28:50;18.75;;;6.93;;
54121;SDS011;40029;58.708;50.190;2024-01-16T14:31:21;20.20;;;8.23;;
54121;SDS011;40029;58.708;50.190;2024-01-16T14:33:52;21.48;;;7.80;;
54121;SDS011;40029;58.708;50.190;2024-01-16T14:36:23;20.42;;;6.28;;
54121;SDS011;40029;58.708;50.190;2024-01-16T14:38:55;19.20;;;7.13;;
54121;SDS011;40029;58.708;50.190;2024-01-16T14:41:45;14.75;;;5.88;;
54121;SDS011;40029;58.708;50.190;2024-01-16T14:44:16;13.20;;;6.38;;
54121;SDS011;40029;58.708;50.190;2024-01-16T14:46:48;17.27;;;7.20;;
54121;SDS011;40029;58.708;50.190;2024-01-16T14:49:19;18.90;;;7.40;;
54121;SDS011;40029;58.708;50.190;2024-01-16T14:51:51;17.55;;;6.75;;
54121;SDS011;40029;58.708;50.190;2024-01-16T14:54:41;13.05;;;5.35;;
54121;SDS011;40029;58.708;50.190;2024-01-16T14:57:12;10.63;;;4.50;;
54121;SDS011;40029;58.708;50.190;2024-01-16T14:59:45;23.83;;;7.43;;
54121;SDS011;40029;58.708;50.190;2024-01-16T15:02:16;15.60;;;6.47;;
54121;SDS011;40029;58.708;50.190;2024-01-16T15:04:47;12.95;;;6.35;;
54121;SDS011;40029;58.708;50.190;2024-01-16T15:07:37;15.32;;;5.70;;
54121;SDS011;40029;58.708;50.190;2024-01-16T15:10:09;12.73;;;4.78;;
54121;SDS011;40029;58.708;50.190;2024-01-16T15:12:42;12.18;;;5.30;;
54121;SDS011;40029;58.708;50.190;2024-01-16T15:15:32;15.65;;;7.57;;
54121;SDS011;40029;58.708;50.190;2024-01-16T15:18:04;26.92;;;10.82;;
54121;SDS011;40029;58.708;50.190;2024-01-16T15:20:35;14.10;;;6.40;;
54121;SDS011;40029;58.708;50.190;2024-01-16T15:23:06;19.23;;;8.32;;
54121;SDS011;40029;58.708;50.190;2024-01-16T15:25:37;13.68;;;6.03;;
54121;SDS011;40029;58.708;50.190;2024-01-16T15:28:09;25.08;;;7.70;;
54121;SDS011;40029;58.708;50.190;2024-01-16T15:30:40;19.95;;;7.35;;
54121;SDS011;40029;58.708;50.190;2024-01-16T15:33:13;14.13;;;5.32;;
54121;SDS011;40029;58.708;50.190;2024-01-16T15:35:44;12.80;;;4.97;;
54121;SDS011;40029;58.708;50.190;2024-01-16T15:38:33;16.77;;;5.72;;
54121;SDS011;40029;58.708;50.190;2024-01-16T15:41:05;8.15;;;4.00;;
54121;SDS011;40029;58.708;50.190;2024-01-16T15:43:36;16.42;;;5.43;;
54121;SDS011;40029;58.708;50.190;2024-01-16T15:46:26;10.25;;;4.32;;
54121;SDS011;40029;58.708;50.190;2024-01-16T15:49:34;12.98;;;6.38;;
54121;SDS011;40029;58.708;50.190;2024-01-16T15:52:06;9.75;;;5.00;;
54121;SDS011;40029;58.708;50.190;2024-01-16T15:54:41;52.38;;;16.70;;
54121;SDS011;40029;58.708;50.190;2024-01-16T15:57:12;16.75;;;5.20;;
54121;SDS011;40029;58.708;50.190;2024-01-16T15:59:45;11.30;;;4.43;;
54121;SDS011;40029;58.708;50.190;2024-01-16T16:02:17;11.65;;;4.75;;